Time;durP1;ratioP1;P1;durP2;ratioP2;P2;SDS_P1;SDS_P2;PMS_P1;PMS_P2;Temp;Humidity;BMP_temperature;BMP_pressure;BME280_temperature;BME280_humidity;BME280_pressure;Samples;Min_cycle;Max_cycle;Signal;HPM_P1;HPM_P2
2024/04/13 00:01:50;;;;;;;0.20;0.10;;;;;;;13.03;86.66;100937.99;87004;271;136375;-71
2024/04/13 00:03:51;;;;;;;0.90;0.40;;;;;;;13.02;86.73;100934.00;87196;269;24977;-70
2024/04/13 00:05:52;;;;;;;0.70;0.40;;;;;;;13.01;86.60;100935.25;86960;266;135854;-73
2024/04/13 00:07:55;;;;;;;1.50;0.40;;;;;;;13.01;86.54;100929.48;87081;266;25188;-72
2024/04/13 00:09:56;;;;;;;1.50;0.30;;;;;;;13.01;86.65;100926.48;86931;267;135944;-72
2024/04/13 00:11:56;;;;;;;0.70;0.30;;;;;;;13.01;86.52;100925.61;87074;267;22574;-75
2024/04/13 00:13:57;;;;;;;1.10;0.50;;;;;;;13.02;86.71;100926.94;87065;279;136270;-73
2024/04/13 00:15:58;;;;;;;2.50;0.40;;;;;;;13.01;86.67;100919.67;87206;270;22567;-73
2024/04/13 00:17:58;;;;;;;0.40;0.20;;;;;;;13.02;86.64;100918.10;87128;270;137755;-74
2024/04/13 00:19:59;;;;;;;3.60;0.80;;;;;;;13.05;86.75;100920.34;87186;266;22595;-71
2024/04/13 00:22:00;;;;;;;0.90;0.30;;;;;;;13.05;86.72;100915.27;87468;266;136674;-73
2024/04/13 00:25:41;;;;;;;2.90;0.20;;;;;;;12.99;87.54;100914.94;84869;305;605868;-70
2024/04/13 00:27:42;;;;;;;1.20;0.50;;;;;;;13.00;87.56;100913.41;86092;292;22560;-70
2024/04/13 00:29:43;;;;;;;1.00;0.50;;;;;;;12.99;87.61;100912.42;86019;288;135802;-71
2024/04/13 00:31:44;;;;;;;1.60;0.40;;;;;;;12.99;87.80;100912.96;86055;288;23782;-72
2024/04/13 00:33:47;;;;;;;0.50;0.40;;;;;;;12.97;88.02;100913.43;86069;288;135704;-70
2024/04/13 00:35:50;;;;;;;0.90;0.30;;;;;;;12.94;88.10;100909.73;86286;288;25162;-70
2024/04/13 00:37:51;;;;;;;1.50;0.30;;;;;;;12.94;88.29;100904.39;86451;291;135571;-69
2024/04/13 00:39:52;;;;;;;1.60;0.50;;;;;;;12.94;88.40;100905.63;86770;290;964388;-71
2024/04/13 00:41:54;;;;;;;1.20;0.40;;;;;;;12.96;88.56;100910.55;87300;281;136228;-71
2024/04/13 00:43:57;;;;;;;0.30;0.30;;;;;;;12.98;88.58;100908.59;87554;286;22580;-73
2024/04/13 00:46:06;;;;;;;1.00;0.40;;;;;;;12.99;88.42;100903.52;87625;290;136030;-70
2024/04/13 00:48:08;;;;;;;1.40;0.50;;;;;;;13.01;88.31;100906.89;87661;287;136202;-73
2024/04/13 00:50:13;;;;;;;1.70;0.50;;;;;;;13.04;88.10;100909.84;87514;290;22545;-72
2024/04/13 00:52:15;;;;;;;3.90;0.40;;;;;;;13.07;88.01;100903.82;86885;286;136934;-75
2024/04/13 00:54:20;;;;;;;0.90;0.40;;;;;;;13.10;87.78;100907.13;86457;286;22588;-68
2024/04/13 00:56:22;;;;;;;2.00;0.80;;;;;;;13.11;87.88;100905.13;86189;286;137189;-69
2024/04/13 00:58:26;;;;;;;1.70;0.70;;;;;;;13.10;87.68;100900.76;86399;285;22581;-71
2024/04/13 01:00:27;;;;;;;0.80;0.40;;;;;;;13.10;87.81;100900.13;86317;289;136749;-70
2024/04/13 01:02:28;;;;;;;2.00;0.50;;;;;;;13.09;87.76;100898.11;86280;290;22556;-70
2024/04/13 01:04:29;;;;;;;0.60;0.40;;;;;;;13.09;87.62;100895.39;86180;290;135396;-71
2024/04/13 01:06:32;;;;;;;1.30;0.70;;;;;;;13.09;87.62;100899.64;86248;289;22568;-71
2024/04/13 01:08:34;;;;;;;1.40;0.70;;;;;;;13.10;87.64;100895.98;86343;286;135682;-70
2024/04/13 01:10:35;;;;;;;0.80;0.50;;;;;;;13.11;87.29;100890.14;86186;289;24259;-71
2024/04/13 01:12:35;;;;;;;1.20;0.70;;;;;;;13.12;87.15;100888.09;86108;289;136318;-72
2024/04/13 01:14:37;;;;;;;1.90;0.40;;;;;;;13.12;86.95;100885.78;86895;275;25235;-72
2024/04/13 01:16:38;;;;;;;0.40;0.40;;;;;;;13.12;86.88;100882.16;86771;270;137394;-71
2024/04/13 01:18:39;;;;;;;1.00;0.80;;;;;;;13.13;86.77;100880.37;86887;281;22615;-69
2024/04/13 01:20:41;;;;;;;1.60;0.80;;;;;;;13.15;86.43;100883.95;86916;282;136736;-71
2024/04/13 01:22:45;;;;;;;0.60;0.60;;;;;;;13.17;86.21;100879.41;86957;274;24110;-72
2024/04/13 01:24:45;;;;;;;2.20;0.30;;;;;;;13.18;86.19;100878.52;86854;278;136729;-72
2024/04/13 01:26:48;;;;;;;0.90;0.30;;;;;;;13.20;85.93;100876.35;86781;282;22604;-72
2024/04/13 01:28:49;;;;;;;3.00;0.30;;;;;;;13.18;85.73;100872.32;86736;276;135422;-70
2024/04/13 01:30:50;;;;;;;0.90;0.30;;;;;;;13.17;85.83;100876.90;86887;270;22551;-72
2024/04/13 01:32:52;;;;;;;2.30;0.60;;;;;;;13.17;85.94;100878.17;86794;268;135683;-70
2024/04/13 01:34:53;;;;;;;3.70;0.60;;;;;;;13.17;86.01;100880.69;86943;278;22605;-70
2024/04/13 01:36:54;;;;;;;1.10;0.80;;;;;;;13.20;86.16;100881.36;86716;282;135280;-70
2024/04/13 01:38:55;;;;;;;0.90;0.50;;;;;;;13.21;86.01;100877.02;86906;278;25226;-69
2024/04/13 01:40:55;;;;;;;3.30;0.50;;;;;;;13.23;85.68;100875.46;86754;279;137123;-70
2024/04/13 01:42:56;;;;;;;1.30;0.60;;;;;;;13.22;85.71;100876.77;86869;271;23019;-71
2024/04/13 01:44:57;;;;;;;2.00;0.40;;;;;;;13.21;85.52;100877.22;86818;275;135877;-71
2024/04/13 01:46:59;;;;;;;0.70;0.40;;;;;;;13.22;85.68;100874.30;86902;283;25139;-73
2024/04/13 01:49:00;;;;;;;0.50;0.50;;;;;;;13.25;85.48;100875.56;86913;274;136322;-71
2024/04/13 01:51:01;;;;;;;0.90;0.30;;;;;;;13.28;85.25;100871.09;87040;275;22567;-72
2024/04/13 01:53:01;;;;;;;0.60;0.20;;;;;;;13.30;84.95;100866.39;87327;271;137652;-70
2024/04/13 01:55:02;;;;;;;1.10;0.80;;;;;;;13.30;84.76;100863.48;87305;271;22707;-71
2024/04/13 01:57:03;;;;;;;1.30;0.40;;;;;;;13.29;84.73;100860.61;87071;274;136580;-71
2024/04/13 01:59:05;;;;;;;1.00;0.30;;;;;;;13.27;85.00;100856.36;86928;275;22587;-72
2024/04/13 02:01:06;;;;;;;0.50;0.50;;;;;;;13.24;85.01;100855.46;86928;274;135482;-72
2024/04/13 02:03:06;;;;;;;1.50;0.60;;;;;;;13.20;85.36;100853.36;86889;271;22605;-75
2024/04/13 02:05:08;;;;;;;5.90;1.40;;;;;;;13.16;85.78;100853.34;86796;275;135893;-72
2024/04/13 02:07:09;;;;;;;0.80;0.70;;;;;;;13.14;85.92;100848.42;87088;276;25176;-70
2024/04/13 02:09:13;;;;;;;0.80;0.70;;;;;;;13.12;86.07;100851.69;86809;274;135945;-76
2024/04/13 02:11:13;;;;;;;0.40;0.40;;;;;;;13.11;86.32;100849.46;86990;270;23752;-73
2024/04/13 02:13:14;;;;;;;1.00;0.60;;;;;;;13.10;86.40;100849.20;86843;270;135650;-72
2024/04/13 02:15:15;;;;;;;0.30;0.30;;;;;;;13.05;86.39;100847.27;86850;274;22641;-72
2024/04/13 02:17:16;;;;;;;0.70;0.40;;;;;;;13.02;86.76;100844.94;86840;274;137832;-72
2024/04/13 02:19:18;;;;;;;0.80;0.80;;;;;;;13.01;86.83;100847.23;86949;275;25271;-73
2024/04/13 02:21:20;;;;;;;0.70;0.70;;;;;;;13.00;86.75;100846.48;86821;275;136928;-75
2024/04/13 02:23:22;;;;;;;2.10;0.50;;;;;;;13.00;87.09;100844.46;86899;271;22614;-71
2024/04/13 02:25:22;;;;;;;3.30;0.50;;;;;;;13.01;86.94;100844.88;86960;270;136763;-75
2024/04/13 02:27:23;;;;;;;2.20;0.60;;;;;;;13.03;86.78;100847.95;86936;275;25246;-72
2024/04/13 02:29:25;;;;;;;1.20;0.80;;;;;;;13.05;87.01;100845.17;86859;275;137721;-74
2024/04/13 02:31:26;;;;;;;0.70;0.50;;;;;;;13.09;86.87;100845.11;86746;271;25306;-72
2024/04/13 02:33:26;;;;;;;1.10;0.50;;;;;;;13.10;86.73;100844.42;86712;282;137443;-72
2024/04/13 02:35:27;;;;;;;1.20;0.70;;;;;;;13.09;86.88;100844.41;86933;266;22573;-71
2024/04/13 02:37:27;;;;;;;1.30;0.50;;;;;;;13.06;86.87;100843.61;86675;274;135589;-71
2024/04/13 02:39:30;;;;;;;2.10;1.30;;;;;;;13.07;86.88;100841.52;86815;275;22850;-74
2024/04/13 02:41:31;;;;;;;1.40;0.70;;;;;;;13.08;86.87;100843.05;86765;274;135986;-75
2024/04/13 02:43:35;;;;;;;0.80;0.50;;;;;;;13.05;86.85;100844.23;87045;274;24006;-72
2024/04/13 02:45:36;;;;;;;1.20;0.80;;;;;;;13.01;86.87;100838.64;86822;275;136287;-73
2024/04/13 02:47:37;;;;;;;1.00;0.60;;;;;;;12.98;86.97;100839.50;86823;281;24222;-73
2024/04/13 02:49:38;;;;;;;2.50;0.90;;;;;;;12.95;87.49;100844.83;86869;278;135538;-73
2024/04/13 02:51:39;;;;;;;0.70;0.70;;;;;;;12.94;87.23;100841.04;86918;275;24371;-71
2024/04/13 02:53:40;;;;;;;0.90;0.50;;;;;;;12.94;87.45;100839.63;86774;273;136935;-72
2024/04/13 02:55:41;;;;;;;3.20;0.80;;;;;;;12.94;87.55;100836.17;86990;270;24085;-74
2024/04/13 02:57:43;;;;;;;0.50;0.40;;;;;;;12.98;87.42;100839.14;86836;274;137725;-73
2024/04/13 02:59:44;;;;;;;0.80;0.80;;;;;;;13.01;87.36;100836.56;86955;274;22647;-73
2024/04/13 03:01:45;;;;;;;1.00;0.60;;;;;;;13.03;87.16;100839.21;86814;274;136480;-74
2024/04/13 03:03:46;;;;;;;1.20;0.60;;;;;;;13.03;87.20;100842.56;86907;270;22564;-73
2024/04/13 03:06:08;;;;;;;0.40;0.40;;;;;;;13.01;86.94;100846.32;86774;271;136320;-71
2024/04/13 03:08:09;;;;;;;1.20;0.60;;;;;;;12.98;86.94;100845.31;86868;275;136202;-75
2024/04/13 03:10:10;;;;;;;0.90;0.60;;;;;;;12.97;87.08;100845.30;86938;282;22574;-72
2024/04/13 03:12:10;;;;;;;2.80;0.90;;;;;;;12.97;87.39;100842.05;86814;274;137629;-73
2024/04/13 03:14:11;;;;;;;1.40;0.80;;;;;;;12.99;87.16;100843.00;86939;274;22561;-74
2024/04/13 03:16:12;;;;;;;0.80;0.60;;;;;;;12.99;87.15;100840.79;86840;274;136413;-72
2024/04/13 03:18:14;;;;;;;1.40;1.10;;;;;;;12.98;87.03;100839.14;86974;271;23907;-72
2024/04/13 03:20:15;;;;;;;1.80;0.70;;;;;;;12.96;87.04;100837.59;86985;269;136395;-72
2024/04/13 03:22:15;;;;;;;0.50;0.40;;;;;;;12.96;87.07;100836.55;86836;283;22570;-72
2024/04/13 03:24:16;;;;;;;0.60;0.60;;;;;;;12.96;87.15;100838.63;86871;281;136893;-71
2024/04/13 03:26:17;;;;;;;2.10;0.80;;;;;;;12.96;87.08;100834.74;86946;274;23327;-72
2024/04/13 03:28:24;;;;;;;1.20;1.10;;;;;;;12.96;87.16;100834.05;86846;282;137539;-73
2024/04/13 03:30:25;;;;;;;1.00;0.40;;;;;;;12.96;87.11;100836.11;86833;274;23022;-71
2024/04/13 03:32:26;;;;;;;2.20;0.80;;;;;;;12.98;86.91;100835.52;86851;278;136748;-72
2024/04/13 03:34:27;;;;;;;2.60;0.90;;;;;;;12.99;86.74;100834.20;87074;282;23451;-71
2024/04/13 03:36:28;;;;;;;1.80;0.70;;;;;;;12.98;87.02;100833.95;86950;273;136903;-72
2024/04/13 03:38:29;;;;;;;1.10;0.90;;;;;;;12.98;86.97;100835.40;86932;274;22574;-70
2024/04/13 03:40:30;;;;;;;0.70;0.70;;;;;;;12.98;86.89;100837.86;86863;274;136463;-73
2024/04/13 03:42:30;;;;;;;3.30;1.10;;;;;;;12.98;86.88;100836.96;87361;270;22642;-72
2024/04/13 03:44:31;;;;;;;1.80;1.00;;;;;;;12.99;87.22;100833.74;87142;274;136637;-69
2024/04/13 03:46:31;;;;;;;1.50;0.80;;;;;;;13.00;87.06;100832.83;87260;278;25312;-73
2024/04/13 03:48:33;;;;;;;3.20;0.70;;;;;;;13.00;87.01;100832.31;87119;277;138446;-71
2024/04/13 03:50:40;;;;;;;1.10;0.60;;;;;;;12.99;87.09;100829.10;87078;277;22579;-74
2024/04/13 03:52:41;;;;;;;1.80;0.60;;;;;;;12.98;87.29;100833.67;86959;270;137394;-73
2024/04/13 03:54:42;;;;;;;2.40;1.50;;;;;;;12.98;87.30;100828.97;87141;270;22597;-78
2024/04/13 03:56:43;;;;;;;4.20;0.70;;;;;;;12.99;87.15;100832.22;87011;270;139339;-73
2024/04/13 03:58:44;;;;;;;1.60;0.80;;;;;;;13.02;87.25;100830.73;86577;274;23231;-74
2024/04/13 04:00:45;;;;;;;3.20;0.90;;;;;;;13.07;87.16;100830.36;86922;274;138784;-77
2024/04/13 04:02:46;;;;;;;6.20;1.70;;;;;;;13.10;86.77;100829.11;87040;268;22552;-72
2024/04/13 04:04:47;;;;;;;3.60;0.90;;;;;;;13.11;86.70;100826.56;86990;273;137680;-76
2024/04/13 04:06:47;;;;;;;0.80;0.70;;;;;;;13.15;86.83;100829.53;87190;270;25194;-77
2024/04/13 04:08:48;;;;;;;2.80;0.90;;;;;;;13.19;86.62;100828.58;87100;275;136861;-73
2024/04/13 04:10:49;;;;;;;1.40;0.90;;;;;;;13.25;86.13;100829.70;87187;274;24069;-77
2024/04/13 04:12:50;;;;;;;0.90;0.40;;;;;;;13.27;85.85;100832.21;87046;277;135984;-78
2024/04/13 04:14:51;;;;;;;4.30;0.80;;;;;;;13.30;85.89;100831.36;87196;278;25239;-68
2024/04/13 04:16:53;;;;;;;2.30;0.70;;;;;;;13.32;85.70;100826.81;87073;270;136987;-75
2024/04/13 04:18:54;;;;;;;1.60;0.90;;;;;;;13.34;85.64;100829.80;87246;270;24587;-75
2024/04/13 04:20:55;;;;;;;2.60;1.20;;;;;;;13.34;85.28;100827.98;87026;274;136083;-69
2024/04/13 04:22:56;;;;;;;2.20;1.00;;;;;;;13.35;85.46;100828.05;87130;278;25207;-72
2024/04/13 04:24:56;;;;;;;2.30;1.20;;;;;;;13.35;85.66;100831.55;86991;278;137353;-74
2024/04/13 04:26:57;;;;;;;1.70;0.80;;;;;;;13.37;85.45;100833.03;87100;270;25239;-73
2024/04/13 04:28:58;;;;;;;2.10;1.00;;;;;;;13.40;85.58;100833.38;87122;271;136931;-71
2024/04/13 04:31:11;;;;;;;2.80;1.30;;;;;;;13.44;85.37;100831.96;87011;277;22581;-71
2024/04/13 04:33:12;;;;;;;3.50;0.90;;;;;;;13.48;84.87;100833.30;86995;270;136246;-69
2024/04/13 04:35:14;;;;;;;6.00;1.30;;;;;;;13.49;84.78;100833.45;87187;275;24087;-70
2024/04/13 04:37:15;;;;;;;2.80;0.80;;;;;;;13.53;84.84;100830.50;86993;262;137116;-70
2024/04/13 04:39:17;;;;;;;1.10;0.80;;;;;;;13.56;84.07;100836.20;87112;269;22580;-71
2024/04/13 04:41:18;;;;;;;1.00;0.90;;;;;;;13.56;84.09;100832.34;87016;277;137251;-68
2024/04/13 04:43:19;;;;;;;2.70;0.60;;;;;;;13.59;83.94;100835.20;87190;270;22561;-70
2024/04/13 04:45:19;;;;;;;1.00;0.70;;;;;;;13.62;83.89;100839.96;86981;270;137221;-69
2024/04/13 04:47:20;;;;;;;0.90;0.80;;;;;;;13.66;83.74;100841.25;87144;274;23749;-70
2024/04/13 04:49:21;;;;;;;2.20;0.60;;;;;;;13.67;83.58;100842.38;87002;271;138802;-68
2024/04/13 04:51:21;;;;;;;1.90;1.00;;;;;;;13.69;83.29;100843.02;87099;270;23908;-68
2024/04/13 04:53:25;;;;;;;4.00;1.00;;;;;;;13.69;83.40;100840.66;87098;277;136377;-70
2024/04/13 04:55:28;;;;;;;1.20;0.90;;;;;;;13.72;83.31;100839.41;87398;273;23770;-68
2024/04/13 04:57:28;;;;;;;2.10;0.60;;;;;;;13.74;82.99;100838.59;87218;266;136999;-69
2024/04/13 04:59:29;;;;;;;1.30;0.90;;;;;;;13.75;83.05;100837.56;87243;274;23267;-70
2024/04/13 05:01:29;;;;;;;2.80;0.80;;;;;;;13.76;82.74;100830.81;87035;271;137363;-68
2024/04/13 05:03:30;;;;;;;2.00;0.70;;;;;;;13.79;82.57;100834.29;87317;274;23808;-69
2024/04/13 05:05:31;;;;;;;2.20;0.90;;;;;;;13.80;82.48;100833.14;87036;270;136256;-70
2024/04/13 05:07:32;;;;;;;3.30;0.80;;;;;;;13.80;81.97;100830.67;87222;270;22558;-69
2024/04/13 05:09:32;;;;;;;2.90;1.40;;;;;;;13.80;82.19;100824.48;87044;270;137249;-69
2024/04/13 05:11:34;;;;;;;1.80;1.00;;;;;;;13.79;82.18;100822.95;87123;271;22653;-70
2024/04/13 05:13:35;;;;;;;1.10;1.00;;;;;;;13.78;82.19;100817.92;87051;273;136221;-74
2024/04/13 05:15:36;;;;;;;2.00;0.90;;;;;;;13.78;81.84;100817.38;87241;268;22558;-69
2024/04/13 05:17:36;;;;;;;1.40;0.90;;;;;;;13.79;81.93;100816.52;87098;270;137827;-71
2024/04/13 05:19:38;;;;;;;0.60;0.60;;;;;;;13.83;81.87;100815.69;87140;270;24157;-72
2024/04/13 05:21:39;;;;;;;4.10;1.30;;;;;;;13.89;81.72;100813.52;86993;270;136799;-66
2024/04/13 05:23:39;;;;;;;1.90;1.20;;;;;;;13.95;81.52;100811.63;87146;271;22581;-70
2024/04/13 05:25:41;;;;;;;4.00;1.10;;;;;;;14.04;80.87;100811.57;87026;278;135800;-71
2024/04/13 05:27:41;;;;;;;6.00;1.50;;;;;;;14.10;80.09;100807.10;87212;262;25307;-71
2024/04/13 05:29:42;;;;;;;1.10;0.80;;;;;;;14.14;79.88;100804.16;87058;271;136301;-72
2024/04/13 05:31:43;;;;;;;3.20;1.10;;;;;;;14.19;78.70;100798.23;87569;278;25169;-71
2024/04/13 05:33:44;;;;;;;2.30;1.10;;;;;;;14.23;78.30;100805.67;87833;266;137069;-72
2024/04/13 05:35:47;;;;;;;3.90;1.10;;;;;;;14.28;78.05;100801.68;87905;274;25274;-69
2024/04/13 05:37:48;;;;;;;3.80;1.30;;;;;;;14.34;77.06;100801.75;87832;269;136989;-71
2024/04/13 05:39:49;;;;;;;2.60;1.10;;;;;;;14.38;76.97;100799.94;87607;277;22568;-70
2024/04/13 05:41:49;;;;;;;4.10;1.00;;;;;;;14.46;76.45;100798.73;87547;266;135788;-72
2024/04/13 05:43:50;;;;;;;3.70;1.30;;;;;;;14.54;76.33;100798.02;87418;278;22516;-70
2024/04/13 05:45:51;;;;;;;1.30;0.70;;;;;;;14.64;74.95;100791.94;87008;271;136510;-72
2024/04/13 05:47:52;;;;;;;3.40;0.90;;;;;;;14.72;74.73;100795.73;87279;269;24007;-74
2024/04/13 05:49:53;;;;;;;3.70;1.30;;;;;;;14.78;73.92;100792.87;87069;273;137340;-71
2024/04/13 05:51:53;;;;;;;2.40;1.20;;;;;;;14.86;73.38;100791.88;87077;273;25112;-72
2024/04/13 05:53:54;;;;;;;0.70;0.50;;;;;;;14.92;72.03;100787.35;87006;274;137293;-72
2024/04/13 05:55:55;;;;;;;0.80;0.60;;;;;;;14.95;71.35;100787.43;87061;278;22564;-73
2024/04/13 05:57:56;;;;;;;1.10;0.60;;;;;;;14.99;71.25;100787.84;86878;266;136023;-74
2024/04/13 05:59:57;;;;;;;2.10;0.60;;;;;;;15.04;71.16;100787.85;87163;269;22574;-73
2024/04/13 06:01:58;;;;;;;5.30;1.00;;;;;;;15.13;69.81;100786.48;87140;270;135635;-72
2024/04/13 06:03:58;;;;;;;3.30;0.90;;;;;;;15.21;68.89;100788.09;87017;271;23490;-74
2024/04/13 06:05:59;;;;;;;4.60;0.70;;;;;;;15.30;68.81;100789.81;86905;269;136090;-74
2024/04/13 06:08:00;;;;;;;1.30;0.60;;;;;;;15.50;68.94;100788.25;87044;278;22537;-74
2024/04/13 06:10:01;;;;;;;4.00;0.60;;;;;;;15.73;66.14;100787.68;87074;270;135955;-74
2024/04/13 06:12:03;;;;;;;1.80;0.70;;;;;;;15.92;65.41;100786.63;86926;271;136596;-70
2024/04/13 06:14:03;;;;;;;1.10;0.60;;;;;;;16.18;64.93;100784.34;87130;272;23039;-75
2024/04/13 06:16:04;;;;;;;2.20;0.70;;;;;;;16.43;63.57;100784.69;87152;278;137628;-76
2024/04/13 06:18:06;;;;;;;2.60;0.40;;;;;;;16.69;62.50;100785.11;87220;272;22549;-76
2024/04/13 06:20:08;;;;;;;3.40;0.60;;;;;;;16.90;61.89;100779.93;87080;272;137618;-70
2024/04/13 06:22:09;;;;;;;1.10;0.40;;;;;;;17.03;60.29;100778.46;87369;267;25336;-73
2024/04/13 06:24:10;;;;;;;1.20;0.50;;;;;;;17.09;59.23;100778.44;87058;269;138017;-70
2024/04/13 06:26:11;;;;;;;2.40;0.70;;;;;;;17.09;58.52;100778.08;87077;270;24318;-71
2024/04/13 06:28:12;;;;;;;5.10;0.90;;;;;;;17.07;58.27;100778.92;87010;270;136982;-70
2024/04/13 06:30:15;;;;;;;3.60;0.70;;;;;;;17.02;57.82;100779.38;87025;270;24173;-70
2024/04/13 06:32:17;;;;;;;0.90;0.40;;;;;;;16.91;57.74;100781.05;86965;266;136394;-71
2024/04/13 06:34:18;;;;;;;3.50;0.90;;;;;;;16.78;57.29;100777.02;87106;266;23956;-70
2024/04/13 06:36:18;;;;;;;0.90;0.50;;;;;;;16.67;57.44;100783.76;87054;273;136198;-70
2024/04/13 06:38:23;;;;;;;2.20;0.80;;;;;;;16.70;57.95;100782.46;87132;270;22576;-72
2024/04/13 06:40:24;;;;;;;0.40;0.30;;;;;;;16.81;58.62;100776.97;87016;265;136379;-71
2024/04/13 06:42:25;;;;;;;0.80;0.40;;;;;;;17.04;57.37;100774.02;86843;281;24094;-70
2024/04/13 06:44:26;;;;;;;2.10;0.50;;;;;;;17.25;54.51;100769.85;87883;270;136870;-70
2024/04/13 06:46:27;;;;;;;1.30;0.40;;;;;;;17.42;54.26;100770.77;87884;268;22553;-71
2024/04/13 06:48:28;;;;;;;2.40;0.30;;;;;;;17.69;53.45;100765.32;88417;266;136562;-70
2024/04/13 06:50:30;;;;;;;3.80;0.60;;;;;;;17.89;51.53;100760.22;87328;273;22637;-71
2024/04/13 06:52:30;;;;;;;2.00;0.20;;;;;;;18.04;49.89;100761.56;87084;269;136378;-73
2024/04/13 06:54:31;;;;;;;2.30;0.20;;;;;;;18.08;49.12;100759.12;86922;275;25267;-70
2024/04/13 06:56:32;;;;;;;4.40;0.60;;;;;;;18.04;48.92;100752.16;86877;272;136163;-69
2024/04/13 06:58:32;;;;;;;1.20;0.30;;;;;;;18.02;48.79;100752.80;87281;273;22828;-77
2024/04/13 07:00:34;;;;;;;2.10;0.30;;;;;;;18.04;48.55;100753.30;87193;273;136443;-74
2024/04/13 07:02:34;;;;;;;1.60;0.30;;;;;;;18.05;48.77;100753.64;87148;270;24278;-70
2024/04/13 07:04:35;;;;;;;2.00;0.20;;;;;;;18.07;48.76;100749.95;87003;275;136156;-72
2024/04/13 07:06:36;;;;;;;1.10;0.50;;;;;;;18.09;48.34;100749.60;87220;268;25240;-75
2024/04/13 07:08:37;;;;;;;0.50;0.20;;;;;;;18.07;48.15;100748.95;87656;269;136317;-77
2024/04/13 07:10:38;;;;;;;1.00;0.40;;;;;;;18.04;47.37;100747.09;87659;271;22536;-71
2024/04/13 07:12:39;;;;;;;2.10;0.20;;;;;;;17.99;46.84;100745.00;86969;277;136389;-71
2024/04/13 07:14:40;;;;;;;4.00;0.30;;;;;;;17.92;45.90;100743.26;87069;270;22598;-71
2024/04/13 07:16:40;;;;;;;0.60;0.20;;;;;;;17.88;46.12;100742.93;86992;274;136289;-71
2024/04/13 07:18:41;;;;;;;2.10;0.40;;;;;;;17.94;47.05;100742.45;86922;271;22563;-73
2024/04/13 07:20:46;;;;;;;0.70;0.20;;;;;;;18.04;46.66;100737.38;86899;273;136179;-70
2024/04/13 07:22:46;;;;;;;2.30;0.30;;;;;;;18.09;46.82;100738.88;87066;270;25080;-70
2024/04/13 07:24:47;;;;;;;1.60;0.30;;;;;;;18.14;47.04;100736.29;86966;269;136448;-72
2024/04/13 07:26:48;;;;;;;3.10;0.40;;;;;;;18.19;45.99;100735.77;87087;261;24567;-71
2024/04/13 07:28:48;;;;;;;3.40;0.60;;;;;;;18.23;46.21;100732.02;86988;276;135986;-69
2024/04/13 07:30:49;;;;;;;2.00;0.60;;;;;;;18.28;46.16;100725.30;86996;274;22842;-72
2024/04/13 07:32:50;;;;;;;0.40;0.20;;;;;;;18.37;45.78;100728.65;86991;269;135921;-71
2024/04/13 07:34:51;;;;;;;0.80;0.20;;;;;;;18.44;45.29;100725.77;87071;270;22568;-72
2024/04/13 07:36:52;;;;;;;0.70;0.40;;;;;;;18.48;45.27;100726.82;86900;270;137347;-71
2024/04/13 07:38:52;;;;;;;1.50;0.50;;;;;;;18.45;44.95;100726.92;87115;277;22573;-69
2024/04/13 07:40:53;;;;;;;4.70;0.40;;;;;;;18.38;45.01;100726.23;86851;278;136156;-71
2024/04/13 07:42:54;;;;;;;3.20;0.50;;;;;;;18.31;45.33;100725.09;87061;270;22571;-72
2024/04/13 07:44:54;;;;;;;1.30;0.30;;;;;;;18.26;45.28;100725.26;86898;266;137397;-71
2024/04/13 07:46:55;;;;;;;0.50;0.20;;;;;;;18.17;45.24;100725.80;87057;274;22819;-70
2024/04/13 07:48:56;;;;;;;0.30;0.10;;;;;;;18.06;45.84;100720.71;87003;269;135857;-69
2024/04/13 07:50:57;;;;;;;1.00;0.20;;;;;;;18.03;46.19;100720.37;87120;269;24545;-67
2024/04/13 07:52:57;;;;;;;0.30;0.10;;;;;;;18.01;46.36;100714.48;86919;273;136264;-71
2024/04/13 07:54:58;;;;;;;2.10;0.30;;;;;;;17.96;45.99;100708.57;87074;265;25185;-68
2024/04/13 07:57:00;;;;;;;1.00;0.20;;;;;;;17.91;45.80;100709.95;87001;277;136507;-72
2024/04/13 07:59:00;;;;;;;0.30;0.20;;;;;;;17.87;46.12;100709.59;87068;262;26166;-71
2024/04/13 08:01:01;;;;;;;0.50;0.10;;;;;;;17.89;46.28;100709.16;86954;269;136320;-71
2024/04/13 08:03:02;;;;;;;1.40;0.40;;;;;;;17.93;46.32;100704.92;86992;269;22546;-72
2024/04/13 08:05:03;;;;;;;3.20;0.20;;;;;;;17.91;46.24;100707.59;86850;272;135987;-72
2024/04/13 08:07:04;;;;;;;0.90;0.40;;;;;;;17.89;46.46;100706.61;87035;270;25268;-68
2024/04/13 08:09:05;;;;;;;1.10;0.10;;;;;;;17.88;46.05;100704.64;86974;271;137405;-67
2024/04/13 08:11:07;;;;;;;0.60;0.40;;;;;;;17.78;45.72;100702.43;87118;272;25176;-69
2024/04/13 08:13:10;;;;;;;1.10;0.30;;;;;;;17.63;46.34;100706.66;87361;272;135985;-70
2024/04/13 08:15:11;;;;;;;0.60;0.20;;;;;;;17.56;46.81;100703.08;87065;270;24174;-71
2024/04/13 08:17:13;;;;;;;0.50;0.20;;;;;;;17.54;47.12;100700.73;87488;270;137390;-70
2024/04/13 08:19:14;;;;;;;2.80;0.40;;;;;;;17.57;47.36;100702.59;86846;268;22998;-68
2024/04/13 08:21:14;;;;;;;6.40;0.20;;;;;;;17.63;47.06;100696.92;86857;271;136730;-72
2024/04/13 08:23:15;;;;;;;0.80;0.20;;;;;;;17.70;47.24;100692.15;87002;270;24068;-73
2024/04/13 08:25:16;;;;;;;2.30;0.60;;;;;;;17.81;47.07;100690.02;86912;270;135841;-75
2024/04/13 08:27:16;;;;;;;2.20;0.40;;;;;;;17.93;47.14;100691.06;87668;273;22608;-73
2024/04/13 08:29:17;;;;;;;1.60;0.40;;;;;;;18.06;46.95;100687.92;87307;269;137582;-72
2024/04/13 08:31:18;;;;;;;0.50;0.20;;;;;;;18.19;47.43;100684.80;87096;270;23264;-72
2024/04/13 08:33:19;;;;;;;2.90;0.20;;;;;;;18.32;46.34;100685.88;86958;269;136533;-71
2024/04/13 08:35:19;;;;;;;3.30;0.50;;;;;;;18.38;46.61;100685.29;87067;274;25043;-72
2024/04/13 08:37:20;;;;;;;1.20;0.50;;;;;;;18.39;46.25;100679.41;87617;273;137823;-72
2024/04/13 08:39:21;;;;;;;0.80;0.20;;;;;;;18.37;45.61;100672.07;86780;278;811138;-71
2024/04/13 08:41:44;;;;;;;5.10;0.50;;;;;;;18.33;45.85;100674.95;86984;266;137636;-71
2024/04/13 08:43:44;;;;;;;0.60;0.20;;;;;;;18.36;45.89;100675.68;86940;278;22571;-72
2024/04/13 08:45:46;;;;;;;2.00;0.20;;;;;;;18.40;45.39;100678.38;86702;268;137264;-71
2024/04/13 08:47:46;;;;;;;1.20;0.20;;;;;;;18.40;45.44;100669.08;87014;268;22634;-73
2024/04/13 08:49:50;;;;;;;3.10;0.30;;;;;;;18.40;45.73;100659.69;86809;271;137860;-71
2024/04/13 08:51:51;;;;;;;2.30;0.60;;;;;;;18.44;45.56;100669.50;89941;267;24233;-70
2024/04/13 08:53:51;;;;;;;1.40;0.30;;;;;;;18.52;45.62;100660.78;87560;276;136066;-71
2024/04/13 08:55:54;;;;;;;0.90;0.20;;;;;;;18.60;45.70;100658.00;87126;270;22752;-70
2024/04/13 08:57:56;;;;;;;4.20;0.80;;;;;;;18.65;45.72;100660.98;86965;277;136309;-74
2024/04/13 09:00:00;;;;;;;0.70;0.30;;;;;;;18.67;45.57;100659.30;87042;271;23990;-72
2024/04/13 09:02:04;;;;;;;;;;;;;;;18.63;45.31;100660.84;87138;270;135646;-77
2024/04/13 09:04:06;;;;;;;0.90;0.20;;;;;;;18.52;45.77;100654.90;87529;271;122696;-72
2024/04/13 09:06:08;;;;;;;0.50;0.20;;;;;;;18.41;46.14;100657.84;87135;270;25249;-73
2024/04/13 09:08:12;;;;;;;1.10;0.30;;;;;;;18.37;45.87;100656.91;86821;268;137322;-74
2024/04/13 09:10:15;;;;;;;1.00;0.20;;;;;;;18.36;46.09;100648.10;87215;275;22592;-75
2024/04/13 09:12:16;;;;;;;3.00;0.40;;;;;;;18.37;45.82;100641.92;87057;266;135909;-73
2024/04/13 09:14:17;;;;;;;0.80;0.20;;;;;;;18.36;45.66;100645.23;87070;276;22561;-73
2024/04/13 09:16:19;;;;;;;6.00;0.20;;;;;;;18.34;46.02;100648.49;87017;271;136716;-69
2024/04/13 09:18:20;;;;;;;9.10;0.30;;;;;;;18.32;46.11;100651.77;87264;269;22525;-76
2024/04/13 09:20:23;;;;;;;2.80;0.50;;;;;;;18.24;46.19;100648.35;87075;272;136505;-67
2024/04/13 09:22:26;;;;;;;1.80;0.30;;;;;;;18.17;46.54;100646.76;87181;270;24045;-75
2024/04/13 09:24:39;;;;;;;2.20;0.20;;;;;;;18.16;47.05;100641.21;87544;273;136247;-73
2024/04/13 09:26:44;;;;;;;0.50;0.20;;;;;;;18.23;46.72;100638.00;87218;269;22970;-73
2024/04/13 09:28:46;;;;;;;1.60;0.20;;;;;;;18.32;46.66;100643.52;87154;270;136001;-73
2024/04/13 09:30:48;;;;;;;2.10;0.40;;;;;;;18.39;46.78;100640.40;87311;271;22562;-70